sensor_id;sensor_type;location;lat;lon;timestamp;temperature;humidity
64396;DHT22;50717;53.360;6.290;2023-06-26T00:00:26;22.20;99.90
64396;DHT22;50717;53.360;6.290;2023-06-26T00:02:51;22.50;99.90
64396;DHT22;50717;53.360;6.290;2023-06-26T00:05:17;22.20;99.90
64396;DHT22;50717;53.360;6.290;2023-06-26T00:07:43;22.40;99.90
64396;DHT22;50717;53.360;6.290;2023-06-26T00:10:09;22.30;99.90
64396;DHT22;50717;53.360;6.290;2023-06-26T00:12:34;22.30;99.90
64396;DHT22;50717;53.360;6.290;2023-06-26T00:15:00;22.20;99.90
64396;DHT22;50717;53.360;6.290;2023-06-26T00:17:26;22.10;99.90
64396;DHT22;50717;53.360;6.290;2023-06-26T00:19:52;22.30;99.90
64396;DHT22;50717;53.360;6.290;2023-06-26T00:22:18;22.10;99.90
64396;DHT22;50717;53.360;6.290;2023-06-26T00:24:44;22.10;99.90
64396;DHT22;50717;53.360;6.290;2023-06-26T00:27:13;22.00;99.90
64396;DHT22;50717;53.360;6.290;2023-06-26T00:29:38;22.00;99.90
64396;DHT22;50717;53.360;6.290;2023-06-26T00:32:06;22.10;99.90
64396;DHT22;50717;53.360;6.290;2023-06-26T00:34:31;22.00;99.90
64396;DHT22;50717;53.360;6.290;2023-06-26T00:36:57;22.10;99.90
64396;DHT22;50717;53.360;6.290;2023-06-26T00:39:23;22.10;99.90
64396;DHT22;50717;53.360;6.290;2023-06-26T00:41:51;21.80;99.90
64396;DHT22;50717;53.360;6.290;2023-06-26T00:44:19;21.60;99.90
64396;DHT22;50717;53.360;6.290;2023-06-26T00:46:45;21.80;99.90
64396;DHT22;50717;53.360;6.290;2023-06-26T00:49:11;21.80;99.90
64396;DHT22;50717;53.360;6.290;2023-06-26T00:51:38;21.70;99.90
64396;DHT22;50717;53.360;6.290;2023-06-26T00:54:03;22.10;99.90
64396;DHT22;50717;53.360;6.290;2023-06-26T00:56:30;21.70;99.90
64396;DHT22;50717;53.360;6.290;2023-06-26T00:58:56;21.40;99.90
64396;DHT22;50717;53.360;6.290;2023-06-26T01:01:22;21.70;99.90
64396;DHT22;50717;53.360;6.290;2023-06-26T01:03:51;22.00;99.90
64396;DHT22;50717;53.360;6.290;2023-06-26T01:06:20;21.90;99.90
64396;DHT22;50717;53.360;6.290;2023-06-26T01:08:48;21.50;99.90
64396;DHT22;50717;53.360;6.290;2023-06-26T01:11:14;21.60;99.90
64396;DHT22;50717;53.360;6.290;2023-06-26T01:13:42;22.00;99.90
64396;DHT22;50717;53.360;6.290;2023-06-26T01:16:09;21.90;99.90
64396;DHT22;50717;53.360;6.290;2023-06-26T01:18:37;21.80;99.90
64396;DHT22;50717;53.360;6.290;2023-06-26T01:21:07;21.90;99.90
64396;DHT22;50717;53.360;6.290;2023-06-26T01:23:58;21.80;99.90
64396;DHT22;50717;53.360;6.290;2023-06-26T01:26:31;21.70;99.90
64396;DHT22;50717;53.360;6.290;2023-06-26T01:29:01;21.80;99.90
64396;DHT22;50717;53.360;6.290;2023-06-26T01:31:28;21.70;99.90
64396;DHT22;50717;53.360;6.290;2023-06-26T01:33:56;21.60;99.90
64396;DHT22;50717;53.360;6.290;2023-06-26T01:36:23;21.40;99.90
64396;DHT22;50717;53.360;6.290;2023-06-26T01:38:49;21.50;99.90
64396;DHT22;50717;53.360;6.290;2023-06-26T01:41:15;21.80;99.90
64396;DHT22;50717;53.360;6.290;2023-06-26T01:43:57;21.60;99.90
64396;DHT22;50717;53.360;6.290;2023-06-26T01:51:46;21.30;99.90
64396;DHT22;50717;53.360;6.290;2023-06-26T01:54:21;21.30;99.90
64396;DHT22;50717;53.360;6.290;2023-06-26T01:56:49;21.50;99.90
64396;DHT22;50717;53.360;6.290;2023-06-26T01:59:18;21.10;99.90
64396;DHT22;50717;53.360;6.290;2023-06-26T02:01:46;21.60;99.90
64396;DHT22;50717;53.360;6.290;2023-06-26T02:04:12;21.10;99.90
64396;DHT22;50717;53.360;6.290;2023-06-26T02:06:38;21.10;99.90
64396;DHT22;50717;53.360;6.290;2023-06-26T02:09:03;21.20;99.90
64396;DHT22;50717;53.360;6.290;2023-06-26T02:11:29;21.40;99.90
64396;DHT22;50717;53.360;6.290;2023-06-26T02:13:55;21.40;99.90
64396;DHT22;50717;53.360;6.290;2023-06-26T02:16:21;21.10;99.90
64396;DHT22;50717;53.360;6.290;2023-06-26T02:18:46;21.30;99.90
64396;DHT22;50717;53.360;6.290;2023-06-26T02:21:13;20.90;99.90
64396;DHT22;50717;53.360;6.290;2023-06-26T02:23:39;21.00;99.90
64396;DHT22;50717;53.360;6.290;2023-06-26T02:26:04;20.70;99.90
64396;DHT22;50717;53.360;6.290;2023-06-26T02:28:30;20.90;99.90
64396;DHT22;50717;53.360;6.290;2023-06-26T02:30:56;20.70;99.90
64396;DHT22;50717;53.360;6.290;2023-06-26T02:33:22;20.50;99.90
64396;DHT22;50717;53.360;6.290;2023-06-26T02:35:48;20.80;99.90
64396;DHT22;50717;53.360;6.290;2023-06-26T02:38:16;20.50;99.90
64396;DHT22;50717;53.360;6.290;2023-06-26T02:40:41;20.70;99.90
64396;DHT22;50717;53.360;6.290;2023-06-26T02:43:07;20.70;99.90
64396;DHT22;50717;53.360;6.290;2023-06-26T02:45:33;20.30;99.90
64396;DHT22;50717;53.360;6.290;2023-06-26T02:47:58;20.50;99.90
64396;DHT22;50717;53.360;6.290;2023-06-26T02:50:24;20.20;99.90
64396;DHT22;50717;53.360;6.290;2023-06-26T02:52:50;20.50;99.90
64396;DHT22;50717;53.360;6.290;2023-06-26T02:55:18;20.10;99.90
64396;DHT22;50717;53.360;6.290;2023-06-26T02:57:45;20.00;99.90
64396;DHT22;50717;53.360;6.290;2023-06-26T03:00:11;20.10;99.90
64396;DHT22;50717;53.360;6.290;2023-06-26T03:02:37;20.00;99.90
64396;DHT22;50717;53.360;6.290;2023-06-26T03:05:03;19.80;99.90
64396;DHT22;50717;53.360;6.290;2023-06-26T03:07:29;20.00;99.90
64396;DHT22;50717;53.360;6.290;2023-06-26T03:09:55;19.80;99.90
64396;DHT22;50717;53.360;6.290;2023-06-26T03:12:21;20.00;99.90
64396;DHT22;50717;53.360;6.290;2023-06-26T03:14:47;20.10;99.90
64396;DHT22;50717;53.360;6.290;2023-06-26T03:17:12;19.70;99.90
64396;DHT22;50717;53.360;6.290;2023-06-26T03:19:38;19.90;99.90
64396;DHT22;50717;53.360;6.290;2023-06-26T03:22:04;20.00;99.90
64396;DHT22;50717;53.360;6.290;2023-06-26T03:24:30;19.80;99.90
64396;DHT22;50717;53.360;6.290;2023-06-26T03:26:55;19.60;99.90
64396;DHT22;50717;53.360;6.290;2023-06-26T03:29:21;19.70;99.90
64396;DHT22;50717;53.360;6.290;2023-06-26T03:31:47;19.70;99.90
64396;DHT22;50717;53.360;6.290;2023-06-26T03:34:12;19.80;99.90
64396;DHT22;50717;53.360;6.290;2023-06-26T03:36:38;20.00;99.90
64396;DHT22;50717;53.360;6.290;2023-06-26T03:39:04;19.60;99.90
64396;DHT22;50717;53.360;6.290;2023-06-26T03:41:30;20.00;99.90
64396;DHT22;50717;53.360;6.290;2023-06-26T03:43:56;20.20;99.90
64396;DHT22;50717;53.360;6.290;2023-06-26T03:46:22;20.10;99.90
64396;DHT22;50717;53.360;6.290;2023-06-26T03:48:48;20.10;99.90
64396;DHT22;50717;53.360;6.290;2023-06-26T03:51:14;20.20;99.90
64396;DHT22;50717;53.360;6.290;2023-06-26T03:53:40;19.80;99.90
64396;DHT22;50717;53.360;6.290;2023-06-26T03:56:06;19.90;99.90
64396;DHT22;50717;53.360;6.290;2023-06-26T03:58:32;20.00;99.90
64396;DHT22;50717;53.360;6.290;2023-06-26T04:00:57;19.80;99.90
64396;DHT22;50717;53.360;6.290;2023-06-26T04:03:24;20.50;99.90
64396;DHT22;50717;53.360;6.290;2023-06-26T04:05:49;20.40;99.90
64396;DHT22;50717;53.360;6.290;2023-06-26T04:08:15;20.30;99.90
64396;DHT22;50717;53.360;6.290;2023-06-26T04:10:41;20.10;99.90
64396;DHT22;50717;53.360;6.290;2023-06-26T04:13:06;20.60;99.90
64396;DHT22;50717;53.360;6.290;2023-06-26T04:15:32;20.60;99.90
64396;DHT22;50717;53.360;6.290;2023-06-26T04:17:58;20.60;99.90
64396;DHT22;50717;53.360;6.290;2023-06-26T04:20:23;20.80;99.90
64396;DHT22;50717;53.360;6.290;2023-06-26T04:22:49;20.60;99.90
64396;DHT22;50717;53.360;6.290;2023-06-26T04:25:15;20.70;99.90
64396;DHT22;50717;53.360;6.290;2023-06-26T04:27:40;20.30;99.90
64396;DHT22;50717;53.360;6.290;2023-06-26T04:30:07;20.70;99.90
64396;DHT22;50717;53.360;6.290;2023-06-26T04:32:33;20.40;99.90
64396;DHT22;50717;53.360;6.290;2023-06-26T04:34:59;20.90;99.90
64396;DHT22;50717;53.360;6.290;2023-06-26T04:37:25;20.20;99.90
64396;DHT22;50717;53.360;6.290;2023-06-26T04:39:51;20.40;99.90
64396;DHT22;50717;53.360;6.290;2023-06-26T04:42:17;20.40;99.90
64396;DHT22;50717;53.360;6.290;2023-06-26T04:44:44;20.60;99.90
64396;DHT22;50717;53.360;6.290;2023-06-26T04:47:10;20.50;99.90
64396;DHT22;50717;53.360;6.290;2023-06-26T04:49:35;20.60;99.90
64396;DHT22;50717;53.360;6.290;2023-06-26T04:52:01;20.80;99.90
64396;DHT22;50717;53.360;6.290;2023-06-26T04:54:27;20.40;99.90
64396;DHT22;50717;53.360;6.290;2023-06-26T04:56:53;20.30;99.90
64396;DHT22;50717;53.360;6.290;2023-06-26T04:59:19;20.40;99.90
64396;DHT22;50717;53.360;6.290;2023-06-26T05:01:44;20.50;99.90
64396;DHT22;50717;53.360;6.290;2023-06-26T05:04:14;20.40;99.90
64396;DHT22;50717;53.360;6.290;2023-06-26T05:06:41;19.80;99.90
64396;DHT22;50717;53.360;6.290;2023-06-26T05:09:07;20.00;99.90
64396;DHT22;50717;53.360;6.290;2023-06-26T05:11:32;19.90;99.90
64396;DHT22;50717;53.360;6.290;2023-06-26T05:13:58;20.30;99.90
64396;DHT22;50717;53.360;6.290;2023-06-26T05:16:24;20.20;99.90
64396;DHT22;50717;53.360;6.290;2023-06-26T05:18:49;19.70;99.90
64396;DHT22;50717;53.360;6.290;2023-06-26T05:21:16;19.70;99.90
64396;DHT22;50717;53.360;6.290;2023-06-26T05:23:42;19.50;99.90
64396;DHT22;50717;53.360;6.290;2023-06-26T05:26:10;19.50;99.90
64396;DHT22;50717;53.360;6.290;2023-06-26T05:28:36;19.50;99.90
64396;DHT22;50717;53.360;6.290;2023-06-26T05:31:03;19.50;99.90
64396;DHT22;50717;53.360;6.290;2023-06-26T05:33:31;19.60;99.90
64396;DHT22;50717;53.360;6.290;2023-06-26T05:36:00;19.70;99.90
64396;DHT22;50717;53.360;6.290;2023-06-26T05:38:27;19.40;99.90
64396;DHT22;50717;53.360;6.290;2023-06-26T05:40:53;19.40;99.90
64396;DHT22;50717;53.360;6.290;2023-06-26T05:43:19;19.10;99.90
64396;DHT22;50717;53.360;6.290;2023-06-26T05:45:47;19.60;99.90
64396;DHT22;50717;53.360;6.290;2023-06-26T05:48:13;19.30;99.90
64396;DHT22;50717;53.360;6.290;2023-06-26T05:50:39;19.30;99.90
64396;DHT22;50717;53.360;6.290;2023-06-26T05:53:08;18.90;99.90
64396;DHT22;50717;53.360;6.290;2023-06-26T05:55:33;19.00;99.90
64396;DHT22;50717;53.360;6.290;2023-06-26T05:58:00;19.20;99.90
64396;DHT22;50717;53.360;6.290;2023-06-26T06:00:27;19.40;99.90
64396;DHT22;50717;53.360;6.290;2023-06-26T06:02:53;19.70;99.90
64396;DHT22;50717;53.360;6.290;2023-06-26T06:05:23;19.80;99.90
64396;DHT22;50717;53.360;6.290;2023-06-26T06:07:49;19.80;99.90
64396;DHT22;50717;53.360;6.290;2023-06-26T06:10:15;19.70;99.90
64396;DHT22;50717;53.360;6.290;2023-06-26T06:12:40;19.80;99.90
64396;DHT22;50717;53.360;6.290;2023-06-26T06:15:07;20.20;99.90
64396;DHT22;50717;53.360;6.290;2023-06-26T06:17:32;20.10;99.90
64396;DHT22;50717;53.360;6.290;2023-06-26T06:19:58;19.90;99.90
64396;DHT22;50717;53.360;6.290;2023-06-26T06:22:24;20.50;99.90
64396;DHT22;50717;53.360;6.290;2023-06-26T06:24:50;20.50;99.90
64396;DHT22;50717;53.360;6.290;2023-06-26T06:27:16;20.40;99.90
64396;DHT22;50717;53.360;6.290;2023-06-26T06:29:42;19.90;99.90
64396;DHT22;50717;53.360;6.290;2023-06-26T06:32:08;20.20;99.90
64396;DHT22;50717;53.360;6.290;2023-06-26T06:34:34;20.30;99.90
64396;DHT22;50717;53.360;6.290;2023-06-26T06:36:59;20.00;99.90
64396;DHT22;50717;53.360;6.290;2023-06-26T06:39:25;20.40;99.90
64396;DHT22;50717;53.360;6.290;2023-06-26T06:41:51;20.10;99.90
64396;DHT22;50717;53.360;6.290;2023-06-26T06:44:17;20.50;99.90
64396;DHT22;50717;53.360;6.290;2023-06-26T06:46:42;20.80;99.90
64396;DHT22;50717;53.360;6.290;2023-06-26T06:49:09;20.60;99.90
64396;DHT22;50717;53.360;6.290;2023-06-26T06:51:34;20.60;99.90
64396;DHT22;50717;53.360;6.290;2023-06-26T06:54:00;20.60;99.90
64396;DHT22;50717;53.360;6.290;2023-06-26T06:56:26;20.60;99.90
64396;DHT22;50717;53.360;6.290;2023-06-26T06:58:52;20.60;99.90
64396;DHT22;50717;53.360;6.290;2023-06-26T07:01:17;20.60;99.90
64396;DHT22;50717;53.360;6.290;2023-06-26T07:03:43;20.40;99.90
64396;DHT22;50717;53.360;6.290;2023-06-26T07:06:09;20.60;99.90
64396;DHT22;50717;53.360;6.290;2023-06-26T07:08:35;20.70;99.90
64396;DHT22;50717;53.360;6.290;2023-06-26T07:11:00;20.80;99.90
64396;DHT22;50717;53.360;6.290;2023-06-26T07:13:27;20.90;99.90
64396;DHT22;50717;53.360;6.290;2023-06-26T07:15:52;20.50;99.90
64396;DHT22;50717;53.360;6.290;2023-06-26T07:18:18;21.00;99.90
64396;DHT22;50717;53.360;6.290;2023-06-26T07:20:44;22.00;99.90
64396;DHT22;50717;53.360;6.290;2023-06-26T07:23:09;21.30;99.90
64396;DHT22;50717;53.360;6.290;2023-06-26T07:25:35;21.00;99.90
64396;DHT22;50717;53.360;6.290;2023-06-26T07:28:01;20.90;99.90
64396;DHT22;50717;53.360;6.290;2023-06-26T07:30:27;21.00;99.90
64396;DHT22;50717;53.360;6.290;2023-06-26T07:32:52;21.20;99.90
64396;DHT22;50717;53.360;6.290;2023-06-26T07:35:18;20.80;99.90
64396;DHT22;50717;53.360;6.290;2023-06-26T07:37:44;21.00;99.90
64396;DHT22;50717;53.360;6.290;2023-06-26T07:40:10;20.80;99.90
64396;DHT22;50717;53.360;6.290;2023-06-26T07:42:36;20.90;99.90
64396;DHT22;50717;53.360;6.290;2023-06-26T07:45:02;21.10;99.90
64396;DHT22;50717;53.360;6.290;2023-06-26T07:47:35;21.20;99.90
64396;DHT22;50717;53.360;6.290;2023-06-26T07:50:01;20.80;99.90
64396;DHT22;50717;53.360;6.290;2023-06-26T07:52:27;21.40;99.90
64396;DHT22;50717;53.360;6.290;2023-06-26T07:54:52;20.90;99.90
64396;DHT22;50717;53.360;6.290;2023-06-26T07:57:18;20.50;99.90
64396;DHT22;50717;53.360;6.290;2023-06-26T07:59:44;21.30;99.90
64396;DHT22;50717;53.360;6.290;2023-06-26T08:02:10;21.10;99.90
64396;DHT22;50717;53.360;6.290;2023-06-26T08:04:35;21.50;99.90
64396;DHT22;50717;53.360;6.290;2023-06-26T08:07:02;20.90;99.90
64396;DHT22;50717;53.360;6.290;2023-06-26T08:09:29;21.30;99.90
64396;DHT22;50717;53.360;6.290;2023-06-26T08:11:56;21.20;99.90
64396;DHT22;50717;53.360;6.290;2023-06-26T08:14:22;21.30;99.90
64396;DHT22;50717;53.360;6.290;2023-06-26T08:16:48;21.10;99.90
64396;DHT22;50717;53.360;6.290;2023-06-26T08:19:15;21.10;99.90
64396;DHT22;50717;53.360;6.290;2023-06-26T08:21:42;21.30;99.90
64396;DHT22;50717;53.360;6.290;2023-06-26T08:24:09;21.40;99.90
64396;DHT22;50717;53.360;6.290;2023-06-26T08:26:35;21.10;99.90
64396;DHT22;50717;53.360;6.290;2023-06-26T08:29:01;21.40;99.90
64396;DHT22;50717;53.360;6.290;2023-06-26T08:31:36;21.20;99.90
64396;DHT22;50717;53.360;6.290;2023-06-26T08:34:03;21.20;99.90
64396;DHT22;50717;53.360;6.290;2023-06-26T08:36:29;20.90;99.90
64396;DHT22;50717;53.360;6.290;2023-06-26T08:38:54;21.10;99.90
64396;DHT22;50717;53.360;6.290;2023-06-26T08:41:20;21.20;99.90
64396;DHT22;50717;53.360;6.290;2023-06-26T08:43:46;21.00;99.90
64396;DHT22;50717;53.360;6.290;2023-06-26T08:46:12;21.20;99.90
64396;DHT22;50717;53.360;6.290;2023-06-26T08:48:37;21.20;99.90
64396;DHT22;50717;53.360;6.290;2023-06-26T08:51:11;21.00;99.90
64396;DHT22;50717;53.360;6.290;2023-06-26T08:53:57;21.00;99.90
64396;DHT22;50717;53.360;6.290;2023-06-26T08:56:25;21.70;99.90
64396;DHT22;50717;53.360;6.290;2023-06-26T08:58:53;21.70;99.90
64396;DHT22;50717;53.360;6.290;2023-06-26T09:01:20;20.90;99.90
64396;DHT22;50717;53.360;6.290;2023-06-26T09:03:46;21.10;99.90
64396;DHT22;50717;53.360;6.290;2023-06-26T09:06:12;21.10;99.90
64396;DHT22;50717;53.360;6.290;2023-06-26T09:08:38;21.20;99.90
64396;DHT22;50717;53.360;6.290;2023-06-26T09:11:04;21.30;99.90
64396;DHT22;50717;53.360;6.290;2023-06-26T09:13:30;21.70;99.90
64396;DHT22;50717;53.360;6.290;2023-06-26T09:15:56;21.30;99.90
64396;DHT22;50717;53.360;6.290;2023-06-26T09:18:23;21.40;99.90
64396;DHT22;50717;53.360;6.290;2023-06-26T09:20:49;21.60;99.90
64396;DHT22;50717;53.360;6.290;2023-06-26T09:23:16;21.70;99.90
64396;DHT22;50717;53.360;6.290;2023-06-26T09:25:41;21.40;99.90
64396;DHT22;50717;53.360;6.290;2023-06-26T09:28:08;21.90;99.90
64396;DHT22;50717;53.360;6.290;2023-06-26T09:30:35;22.20;99.90
64396;DHT22;50717;53.360;6.290;2023-06-26T09:33:18;21.70;99.90
64396;DHT22;50717;53.360;6.290;2023-06-26T09:35:44;21.80;99.90
64396;DHT22;50717;53.360;6.290;2023-06-26T09:38:12;21.50;99.90
64396;DHT22;50717;53.360;6.290;2023-06-26T09:40:38;21.60;99.90
64396;DHT22;50717;53.360;6.290;2023-06-26T09:43:05;21.10;99.90
64396;DHT22;50717;53.360;6.290;2023-06-26T09:45:33;20.80;99.90
64396;DHT22;50717;53.360;6.290;2023-06-26T09:48:03;21.10;99.90
64396;DHT22;50717;53.360;6.290;2023-06-26T09:50:30;21.30;99.90
64396;DHT22;50717;53.360;6.290;2023-06-26T09:53:07;21.40;99.90
64396;DHT22;50717;53.360;6.290;2023-06-26T09:55:35;21.70;99.90
64396;DHT22;50717;53.360;6.290;2023-06-26T09:58:02;21.50;99.90
64396;DHT22;50717;53.360;6.290;2023-06-26T10:00:29;21.20;99.90
64396;DHT22;50717;53.360;6.290;2023-06-26T10:02:55;21.70;99.90
64396;DHT22;50717;53.360;6.290;2023-06-26T10:05:21;22.10;99.90
64396;DHT22;50717;53.360;6.290;2023-06-26T10:07:46;22.70;99.90
64396;DHT22;50717;53.360;6.290;2023-06-26T10:10:13;22.40;99.90
64396;DHT22;50717;53.360;6.290;2023-06-26T10:12:45;22.00;99.90
64396;DHT22;50717;53.360;6.290;2023-06-26T10:15:13;22.10;99.90
64396;DHT22;50717;53.360;6.290;2023-06-26T10:17:42;22.30;99.90
64396;DHT22;50717;53.360;6.290;2023-06-26T10:20:09;22.10;99.90
64396;DHT22;50717;53.360;6.290;2023-06-26T10:22:45;22.00;99.90
64396;DHT22;50717;53.360;6.290;2023-06-26T10:25:16;21.80;99.90
64396;DHT22;50717;53.360;6.290;2023-06-26T10:27:48;21.60;99.90
64396;DHT22;50717;53.360;6.290;2023-06-26T10:30:19;21.50;99.90
64396;DHT22;50717;53.360;6.290;2023-06-26T10:32:46;21.80;99.90
64396;DHT22;50717;53.360;6.290;2023-06-26T10:35:12;21.90;99.90
64396;DHT22;50717;53.360;6.290;2023-06-26T10:37:41;21.60;99.90
64396;DHT22;50717;53.360;6.290;2023-06-26T10:40:08;22.10;99.90
64396;DHT22;50717;53.360;6.290;2023-06-26T10:42:36;21.80;99.90
64396;DHT22;50717;53.360;6.290;2023-06-26T10:47:41;20.80;99.90
64396;DHT22;50717;53.360;6.290;2023-06-26T10:50:20;21.00;99.90
64396;DHT22;50717;53.360;6.290;2023-06-26T10:52:46;21.20;99.90
64396;DHT22;50717;53.360;6.290;2023-06-26T10:55:31;21.80;99.90
64396;DHT22;50717;53.360;6.290;2023-06-26T10:57:57;22.10;99.90
64396;DHT22;50717;53.360;6.290;2023-06-26T11:00:23;21.60;99.90
64396;DHT22;50717;53.360;6.290;2023-06-26T11:02:51;21.40;99.90
64396;DHT22;50717;53.360;6.290;2023-06-26T11:05:28;22.00;99.90
64396;DHT22;50717;53.360;6.290;2023-06-26T11:10:48;21.50;99.90
64396;DHT22;50717;53.360;6.290;2023-06-26T11:13:15;21.80;99.90
64396;DHT22;50717;53.360;6.290;2023-06-26T11:15:43;21.90;99.90
64396;DHT22;50717;53.360;6.290;2023-06-26T11:18:10;21.80;99.90
64396;DHT22;50717;53.360;6.290;2023-06-26T11:20:36;22.20;99.90
64396;DHT22;50717;53.360;6.290;2023-06-26T11:23:04;22.10;99.90
64396;DHT22;50717;53.360;6.290;2023-06-26T11:25:34;21.70;99.90
64396;DHT22;50717;53.360;6.290;2023-06-26T11:28:01;21.80;99.90
64396;DHT22;50717;53.360;6.290;2023-06-26T11:30:26;21.70;99.90
64396;DHT22;50717;53.360;6.290;2023-06-26T11:32:52;22.20;99.90
64396;DHT22;50717;53.360;6.290;2023-06-26T11:35:25;22.10;99.90
64396;DHT22;50717;53.360;6.290;2023-06-26T11:37:59;22.40;99.90
64396;DHT22;50717;53.360;6.290;2023-06-26T11:40:29;22.40;99.90
64396;DHT22;50717;53.360;6.290;2023-06-26T11:43:00;22.70;99.90
64396;DHT22;50717;53.360;6.290;2023-06-26T11:45:31;23.00;99.90
64396;DHT22;50717;53.360;6.290;2023-06-26T11:47:58;22.50;99.90
64396;DHT22;50717;53.360;6.290;2023-06-26T11:50:24;22.90;99.90
64396;DHT22;50717;53.360;6.290;2023-06-26T11:52:57;23.20;99.90
64396;DHT22;50717;53.360;6.290;2023-06-26T11:55:24;22.50;99.90
64396;DHT22;50717;53.360;6.290;2023-06-26T11:57:52;22.80;99.90
64396;DHT22;50717;53.360;6.290;2023-06-26T12:00:19;22.40;99.90
64396;DHT22;50717;53.360;6.290;2023-06-26T12:02:45;22.20;99.90
64396;DHT22;50717;53.360;6.290;2023-06-26T12:05:16;22.20;99.90
64396;DHT22;50717;53.360;6.290;2023-06-26T12:07:47;21.80;99.90
64396;DHT22;50717;53.360;6.290;2023-06-26T12:10:14;21.50;99.90
64396;DHT22;50717;53.360;6.290;2023-06-26T12:12:41;21.30;99.90
64396;DHT22;50717;53.360;6.290;2023-06-26T12:15:08;21.40;99.90
64396;DHT22;50717;53.360;6.290;2023-06-26T12:17:37;21.60;99.90
64396;DHT22;50717;53.360;6.290;2023-06-26T12:20:20;21.80;99.90
64396;DHT22;50717;53.360;6.290;2023-06-26T12:22:47;21.70;99.90
64396;DHT22;50717;53.360;6.290;2023-06-26T12:25:14;22.40;99.90
64396;DHT22;50717;53.360;6.290;2023-06-26T12:27:40;22.10;99.90
64396;DHT22;50717;53.360;6.290;2023-06-26T12:30:06;22.40;99.90
64396;DHT22;50717;53.360;6.290;2023-06-26T12:32:32;22.60;99.90
64396;DHT22;50717;53.360;6.290;2023-06-26T12:35:00;22.50;99.90
64396;DHT22;50717;53.360;6.290;2023-06-26T12:37:26;22.80;99.90
64396;DHT22;50717;53.360;6.290;2023-06-26T12:39:57;22.50;99.90
64396;DHT22;50717;53.360;6.290;2023-06-26T12:42:33;22.70;99.90
64396;DHT22;50717;53.360;6.290;2023-06-26T12:44:59;22.40;99.90
64396;DHT22;50717;53.360;6.290;2023-06-26T12:47:28;22.60;99.90
64396;DHT22;50717;53.360;6.290;2023-06-26T12:49:54;21.90;99.90
64396;DHT22;50717;53.360;6.290;2023-06-26T12:52:21;22.40;99.90
64396;DHT22;50717;53.360;6.290;2023-06-26T12:54:51;22.40;99.90
64396;DHT22;50717;53.360;6.290;2023-06-26T12:57:17;22.30;99.90
64396;DHT22;50717;53.360;6.290;2023-06-26T12:59:43;22.30;99.90
64396;DHT22;50717;53.360;6.290;2023-06-26T13:02:09;22.20;99.90
64396;DHT22;50717;53.360;6.290;2023-06-26T13:04:37;22.20;99.90
64396;DHT22;50717;53.360;6.290;2023-06-26T13:07:06;22.40;99.90
64396;DHT22;50717;53.360;6.290;2023-06-26T13:09:33;22.40;99.90
64396;DHT22;50717;53.360;6.290;2023-06-26T13:12:01;22.10;99.90
64396;DHT22;50717;53.360;6.290;2023-06-26T13:14:32;22.00;99.90
64396;DHT22;50717;53.360;6.290;2023-06-26T13:17:00;22.40;99.90
64396;DHT22;50717;53.360;6.290;2023-06-26T13:19:26;22.20;99.90
64396;DHT22;50717;53.360;6.290;2023-06-26T13:21:52;22.90;99.90
64396;DHT22;50717;53.360;6.290;2023-06-26T13:24:17;23.00;99.90
64396;DHT22;50717;53.360;6.290;2023-06-26T13:26:43;22.90;99.90
64396;DHT22;50717;53.360;6.290;2023-06-26T13:29:09;23.30;99.90
64396;DHT22;50717;53.360;6.290;2023-06-26T13:31:34;23.40;99.90
64396;DHT22;50717;53.360;6.290;2023-06-26T13:34:03;23.00;99.90
64396;DHT22;50717;53.360;6.290;2023-06-26T13:36:29;23.10;99.90
64396;DHT22;50717;53.360;6.290;2023-06-26T13:38:55;23.00;99.90
64396;DHT22;50717;53.360;6.290;2023-06-26T13:41:24;22.80;99.90
64396;DHT22;50717;53.360;6.290;2023-06-26T13:43:50;23.30;99.90
64396;DHT22;50717;53.360;6.290;2023-06-26T13:46:17;22.80;99.90
64396;DHT22;50717;53.360;6.290;2023-06-26T13:48:44;22.70;99.90
64396;DHT22;50717;53.360;6.290;2023-06-26T13:51:10;22.80;99.90
64396;DHT22;50717;53.360;6.290;2023-06-26T13:53:35;22.40;99.90
64396;DHT22;50717;53.360;6.290;2023-06-26T13:56:01;22.90;99.90
64396;DHT22;50717;53.360;6.290;2023-06-26T13:58:27;22.60;99.90
64396;DHT22;50717;53.360;6.290;2023-06-26T14:00:55;22.40;99.90
64396;DHT22;50717;53.360;6.290;2023-06-26T14:03:21;22.30;99.90
64396;DHT22;50717;53.360;6.290;2023-06-26T14:05:47;22.50;99.90
64396;DHT22;50717;53.360;6.290;2023-06-26T14:08:14;22.70;99.90
64396;DHT22;50717;53.360;6.290;2023-06-26T14:10:39;22.20;99.90
64396;DHT22;50717;53.360;6.290;2023-06-26T14:13:05;22.50;99.90
64396;DHT22;50717;53.360;6.290;2023-06-26T14:15:32;22.70;99.90
64396;DHT22;50717;53.360;6.290;2023-06-26T14:17:58;22.20;99.90
64396;DHT22;50717;53.360;6.290;2023-06-26T14:20:24;22.30;99.90
64396;DHT22;50717;53.360;6.290;2023-06-26T14:22:50;21.70;99.90
64396;DHT22;50717;53.360;6.290;2023-06-26T14:25:16;22.10;99.90
64396;DHT22;50717;53.360;6.290;2023-06-26T14:27:42;22.10;99.90
64396;DHT22;50717;53.360;6.290;2023-06-26T14:30:08;22.80;99.90
64396;DHT22;50717;53.360;6.290;2023-06-26T14:32:34;22.90;99.90
64396;DHT22;50717;53.360;6.290;2023-06-26T14:35:00;22.60;99.90
64396;DHT22;50717;53.360;6.290;2023-06-26T14:37:28;22.00;99.90
64396;DHT22;50717;53.360;6.290;2023-06-26T14:39:54;21.80;99.90
64396;DHT22;50717;53.360;6.290;2023-06-26T14:42:20;21.40;99.90
64396;DHT22;50717;53.360;6.290;2023-06-26T14:44:45;20.80;99.90
64396;DHT22;50717;53.360;6.290;2023-06-26T14:47:16;21.20;99.90
64396;DHT22;50717;53.360;6.290;2023-06-26T14:49:42;20.90;99.90
64396;DHT22;50717;53.360;6.290;2023-06-26T14:52:08;20.80;99.90
64396;DHT22;50717;53.360;6.290;2023-06-26T14:54:35;20.90;99.90
64396;DHT22;50717;53.360;6.290;2023-06-26T14:57:05;20.80;99.90
64396;DHT22;50717;53.360;6.290;2023-06-26T14:59:30;20.90;99.90
64396;DHT22;50717;53.360;6.290;2023-06-26T15:01:56;21.50;99.90
64396;DHT22;50717;53.360;6.290;2023-06-26T15:04:22;21.80;99.90
64396;DHT22;50717;53.360;6.290;2023-06-26T15:06:47;21.90;99.90
64396;DHT22;50717;53.360;6.290;2023-06-26T15:09:14;21.60;99.90
64396;DHT22;50717;53.360;6.290;2023-06-26T15:11:39;21.00;99.90
64396;DHT22;50717;53.360;6.290;2023-06-26T15:14:05;21.50;99.90
64396;DHT22;50717;53.360;6.290;2023-06-26T15:16:31;21.50;99.90
64396;DHT22;50717;53.360;6.290;2023-06-26T15:18:57;21.10;99.90
64396;DHT22;50717;53.360;6.290;2023-06-26T15:21:22;21.10;99.90
64396;DHT22;50717;53.360;6.290;2023-06-26T15:23:50;20.80;99.90
64396;DHT22;50717;53.360;6.290;2023-06-26T15:26:16;20.50;99.90
64396;DHT22;50717;53.360;6.290;2023-06-26T15:28:41;20.30;99.90
64396;DHT22;50717;53.360;6.290;2023-06-26T15:31:07;21.00;99.90
64396;DHT22;50717;53.360;6.290;2023-06-26T15:33:33;21.70;99.90
64396;DHT22;50717;53.360;6.290;2023-06-26T15:35:58;22.10;99.90
64396;DHT22;50717;53.360;6.290;2023-06-26T15:38:24;22.20;99.90